sensor_id;sensor_type;location;lat;lon;timestamp;pressure;altitude;pressure_sealevel;temperature;humidity
15314;BME280;7757;52.626;4.746;2022-08-01T00:00:04;101512.03;;;24.63;59.33
15314;BME280;7757;52.626;4.746;2022-08-01T00:02:31;101511.47;;;24.56;60.30
15314;BME280;7757;52.626;4.746;2022-08-01T00:04:58;101513.91;;;24.57;60.34
15314;BME280;7757;52.626;4.746;2022-08-01T00:07:26;101517.66;;;24.46;60.42
15314;BME280;7757;52.626;4.746;2022-08-01T00:09:53;101523.28;;;24.66;59.57
15314;BME280;7757;52.626;4.746;2022-08-01T00:12:19;101517.22;;;24.59;59.31
15314;BME280;7757;52.626;4.746;2022-08-01T00:14:46;101522.84;;;24.79;58.92
15314;BME280;7757;52.626;4.746;2022-08-01T00:17:13;101518.13;;;24.70;59.30
15314;BME280;7757;52.626;4.746;2022-08-01T00:19:40;101525.34;;;24.81;59.25
15314;BME280;7757;52.626;4.746;2022-08-01T00:22:07;101524.13;;;24.67;58.98
15314;BME280;7757;52.626;4.746;2022-08-01T00:24:35;101510.16;;;24.68;58.92
15314;BME280;7757;52.626;4.746;2022-08-01T00:27:02;101518.38;;;24.68;59.35
15314;BME280;7757;52.626;4.746;2022-08-01T00:29:28;101518.88;;;24.60;59.22
15314;BME280;7757;52.626;4.746;2022-08-01T00:31:55;101518.81;;;24.50;59.36
15314;BME280;7757;52.626;4.746;2022-08-01T00:34:21;101527.03;;;24.55;59.85
15314;BME280;7757;52.626;4.746;2022-08-01T00:36:48;101516.63;;;24.52;59.58
15314;BME280;7757;52.626;4.746;2022-08-01T00:39:15;101519.66;;;24.56;59.68
15314;BME280;7757;52.626;4.746;2022-08-01T00:41:43;101521.03;;;24.58;59.44
15314;BME280;7757;52.626;4.746;2022-08-01T00:44:09;101517.91;;;24.76;58.88
15314;BME280;7757;52.626;4.746;2022-08-01T00:46:36;101525.44;;;24.59;59.50
15314;BME280;7757;52.626;4.746;2022-08-01T00:49:03;101510.69;;;24.65;59.08
15314;BME280;7757;52.626;4.746;2022-08-01T00:51:30;101521.91;;;24.64;59.28
15314;BME280;7757;52.626;4.746;2022-08-01T00:53:57;101526.03;;;24.66;59.43
15314;BME280;7757;52.626;4.746;2022-08-01T00:56:25;101525.97;;;24.56;58.82
15314;BME280;7757;52.626;4.746;2022-08-01T00:58:54;101533.59;;;24.54;59.47
15314;BME280;7757;52.626;4.746;2022-08-01T01:01:21;101533.28;;;24.51;59.49
15314;BME280;7757;52.626;4.746;2022-08-01T01:03:48;101530.81;;;24.49;59.89
15314;BME280;7757;52.626;4.746;2022-08-01T01:06:25;101529.44;;;24.47;60.12
15314;BME280;7757;52.626;4.746;2022-08-01T01:09:02;101534.38;;;24.50;59.73
15314;BME280;7757;52.626;4.746;2022-08-01T01:11:38;101534.38;;;24.50;59.53
15314;BME280;7757;52.626;4.746;2022-08-01T01:14:28;101533.78;;;24.48;59.70
15314;BME280;7757;52.626;4.746;2022-08-01T01:16:58;101522.94;;;24.58;59.02
15314;BME280;7757;52.626;4.746;2022-08-01T01:19:28;101529.81;;;24.60;58.90
15314;BME280;7757;52.626;4.746;2022-08-01T01:22:21;101532.56;;;24.65;59.13
15314;BME280;7757;52.626;4.746;2022-08-01T01:25:01;101535.91;;;24.72;58.40
15314;BME280;7757;52.626;4.746;2022-08-01T01:27:39;101533.41;;;24.66;59.04
15314;BME280;7757;52.626;4.746;2022-08-01T01:30:09;101522.22;;;24.72;58.49
15314;BME280;7757;52.626;4.746;2022-08-01T01:32:39;101529.88;;;24.70;58.68
15314;BME280;7757;52.626;4.746;2022-08-01T01:35:11;101521.69;;;24.70;58.95
15314;BME280;7757;52.626;4.746;2022-08-01T01:37:41;101524.34;;;24.65;58.40
15314;BME280;7757;52.626;4.746;2022-08-01T01:40:11;101525.78;;;24.68;58.81
15314;BME280;7757;52.626;4.746;2022-08-01T01:42:38;101524.75;;;24.79;58.39
15314;BME280;7757;52.626;4.746;2022-08-01T01:45:06;101520.88;;;24.75;58.20
15314;BME280;7757;52.626;4.746;2022-08-01T01:47:36;101528.56;;;24.78;58.34
15314;BME280;7757;52.626;4.746;2022-08-01T01:50:05;101531.56;;;24.76;58.47
15314;BME280;7757;52.626;4.746;2022-08-01T01:52:34;101531.81;;;24.70;58.94
15314;BME280;7757;52.626;4.746;2022-08-01T01:55:04;101541.59;;;24.66;58.76
15314;BME280;7757;52.626;4.746;2022-08-01T01:57:32;101527.34;;;24.59;58.41
15314;BME280;7757;52.626;4.746;2022-08-01T02:00:02;101534.84;;;24.73;58.14
15314;BME280;7757;52.626;4.746;2022-08-01T02:02:31;101540.31;;;24.73;58.06
15314;BME280;7757;52.626;4.746;2022-08-01T02:05:00;101532.97;;;24.79;58.15
15314;BME280;7757;52.626;4.746;2022-08-01T02:07:28;101545.56;;;24.80;57.92
15314;BME280;7757;52.626;4.746;2022-08-01T02:09:56;101544.97;;;24.78;58.10
15314;BME280;7757;52.626;4.746;2022-08-01T02:12:23;101554.50;;;24.70;57.96
15314;BME280;7757;52.626;4.746;2022-08-01T02:14:52;101560.22;;;24.69;58.63
15314;BME280;7757;52.626;4.746;2022-08-01T02:17:22;101555.47;;;24.54;58.85
15314;BME280;7757;52.626;4.746;2022-08-01T02:19:50;101546.94;;;24.51;58.35
15314;BME280;7757;52.626;4.746;2022-08-01T02:22:22;101551.44;;;24.62;58.73
15314;BME280;7757;52.626;4.746;2022-08-01T02:24:54;101552.56;;;24.34;59.37
15314;BME280;7757;52.626;4.746;2022-08-01T02:27:25;101555.94;;;24.46;59.12
15314;BME280;7757;52.626;4.746;2022-08-01T02:29:58;101563.69;;;24.27;59.73
15314;BME280;7757;52.626;4.746;2022-08-01T02:32:31;101551.84;;;24.43;59.23
15314;BME280;7757;52.626;4.746;2022-08-01T02:35:00;101571.03;;;24.54;59.38
15314;BME280;7757;52.626;4.746;2022-08-01T02:37:29;101557.13;;;24.55;58.91
15314;BME280;7757;52.626;4.746;2022-08-01T02:39:59;101558.19;;;24.54;59.25
15314;BME280;7757;52.626;4.746;2022-08-01T02:42:27;101557.13;;;24.23;60.78
15314;BME280;7757;52.626;4.746;2022-08-01T02:44:55;101564.19;;;24.51;59.60
15314;BME280;7757;52.626;4.746;2022-08-01T02:47:23;101557.88;;;24.51;59.44
15314;BME280;7757;52.626;4.746;2022-08-01T02:49:52;101554.94;;;24.25;60.89
15314;BME280;7757;52.626;4.746;2022-08-01T02:52:21;101552.56;;;24.34;59.51
15314;BME280;7757;52.626;4.746;2022-08-01T02:54:53;101550.28;;;24.53;59.43
15314;BME280;7757;52.626;4.746;2022-08-01T02:57:21;101554.84;;;24.15;60.53
15314;BME280;7757;52.626;4.746;2022-08-01T02:59:50;101549.94;;;24.17;60.74
15314;BME280;7757;52.626;4.746;2022-08-01T03:02:18;101553.59;;;24.06;61.29
15314;BME280;7757;52.626;4.746;2022-08-01T03:04:46;101552.50;;;24.02;61.09
15314;BME280;7757;52.626;4.746;2022-08-01T03:07:14;101560.50;;;24.09;60.68
15314;BME280;7757;52.626;4.746;2022-08-01T03:09:45;101558.16;;;23.96;61.01
15314;BME280;7757;52.626;4.746;2022-08-01T03:12:16;101565.66;;;24.05;60.39
15314;BME280;7757;52.626;4.746;2022-08-01T03:14:44;101570.47;;;23.98;61.14
15314;BME280;7757;52.626;4.746;2022-08-01T03:17:12;101574.88;;;23.99;61.50
15314;BME280;7757;52.626;4.746;2022-08-01T03:19:42;101566.72;;;24.04;60.83
15314;BME280;7757;52.626;4.746;2022-08-01T03:22:12;101574.69;;;24.06;60.40
15314;BME280;7757;52.626;4.746;2022-08-01T03:24:41;101562.28;;;23.98;60.58
15314;BME280;7757;52.626;4.746;2022-08-01T03:27:09;101580.03;;;24.17;60.20
15314;BME280;7757;52.626;4.746;2022-08-01T03:29:38;101581.09;;;23.95;61.48
15314;BME280;7757;52.626;4.746;2022-08-01T03:32:06;101583.41;;;23.81;61.97
15314;BME280;7757;52.626;4.746;2022-08-01T03:34:33;101578.53;;;23.61;62.32
15314;BME280;7757;52.626;4.746;2022-08-01T03:37:03;101578.81;;;23.65;61.92
15314;BME280;7757;52.626;4.746;2022-08-01T03:39:34;101583.38;;;23.21;63.79
15314;BME280;7757;52.626;4.746;2022-08-01T03:42:09;101597.13;;;23.64;62.58
15314;BME280;7757;52.626;4.746;2022-08-01T03:44:40;101582.53;;;23.75;62.00
15314;BME280;7757;52.626;4.746;2022-08-01T03:47:09;101591.34;;;23.82;61.39
15314;BME280;7757;52.626;4.746;2022-08-01T03:49:41;101587.56;;;23.62;62.32
15314;BME280;7757;52.626;4.746;2022-08-01T03:52:09;101595.91;;;23.77;61.79
15314;BME280;7757;52.626;4.746;2022-08-01T03:54:43;101581.66;;;23.31;63.15
15314;BME280;7757;52.626;4.746;2022-08-01T03:57:13;101587.28;;;23.63;61.34
15314;BME280;7757;52.626;4.746;2022-08-01T03:59:42;101600.72;;;23.92;60.58
15314;BME280;7757;52.626;4.746;2022-08-01T04:02:11;101605.78;;;23.78;61.55
15314;BME280;7757;52.626;4.746;2022-08-01T04:04:40;101603.81;;;23.73;61.37
15314;BME280;7757;52.626;4.746;2022-08-01T04:07:21;101598.22;;;23.85;60.85
15314;BME280;7757;52.626;4.746;2022-08-01T04:09:48;101600.50;;;23.33;62.45
15314;BME280;7757;52.626;4.746;2022-08-01T04:12:14;101604.00;;;23.67;61.91
15314;BME280;7757;52.626;4.746;2022-08-01T04:14:42;101601.63;;;23.54;62.11
15314;BME280;7757;52.626;4.746;2022-08-01T04:17:08;101600.56;;;23.76;61.51
15314;BME280;7757;52.626;4.746;2022-08-01T04:19:35;101606.16;;;23.86;60.44
15314;BME280;7757;52.626;4.746;2022-08-01T04:22:02;101610.31;;;23.51;62.17
15314;BME280;7757;52.626;4.746;2022-08-01T04:24:30;101611.81;;;23.58;61.99
15314;BME280;7757;52.626;4.746;2022-08-01T04:27:00;101613.41;;;23.38;62.13
15314;BME280;7757;52.626;4.746;2022-08-01T04:29:27;101606.59;;;23.57;61.67
15314;BME280;7757;52.626;4.746;2022-08-01T04:31:59;101610.31;;;23.51;61.24
15314;BME280;7757;52.626;4.746;2022-08-01T04:34:28;101615.28;;;23.54;61.16
15314;BME280;7757;52.626;4.746;2022-08-01T04:36:57;101629.88;;;23.43;61.23
15314;BME280;7757;52.626;4.746;2022-08-01T04:39:26;101623.59;;;23.25;62.03
15314;BME280;7757;52.626;4.746;2022-08-01T04:41:56;101634.16;;;23.55;61.08
15314;BME280;7757;52.626;4.746;2022-08-01T04:44:25;101631.03;;;23.68;60.28
15314;BME280;7757;52.626;4.746;2022-08-01T04:46:54;101634.34;;;23.32;61.85
15314;BME280;7757;52.626;4.746;2022-08-01T04:49:24;101636.25;;;23.31;61.30
15314;BME280;7757;52.626;4.746;2022-08-01T04:51:52;101611.34;;;23.45;60.84
15314;BME280;7757;52.626;4.746;2022-08-01T04:54:25;101624.34;;;23.21;61.88
15314;BME280;7757;52.626;4.746;2022-08-01T04:56:53;101643.63;;;23.69;60.21
15314;BME280;7757;52.626;4.746;2022-08-01T04:59:21;101629.88;;;23.43;60.46
15314;BME280;7757;52.626;4.746;2022-08-01T05:02:06;101648.78;;;23.32;60.84
15314;BME280;7757;52.626;4.746;2022-08-01T05:04:35;101648.28;;;23.35;61.31
15314;BME280;7757;52.626;4.746;2022-08-01T05:07:02;101654.25;;;23.32;60.65
15314;BME280;7757;52.626;4.746;2022-08-01T05:09:29;101645.56;;;23.35;60.43
15314;BME280;7757;52.626;4.746;2022-08-01T05:11:56;101654.50;;;23.64;60.40
15314;BME280;7757;52.626;4.746;2022-08-01T05:14:23;101646.81;;;23.45;60.47
15314;BME280;7757;52.626;4.746;2022-08-01T05:16:50;101640.47;;;23.39;60.46
15314;BME280;7757;52.626;4.746;2022-08-01T05:19:17;101649.06;;;23.48;60.73
15314;BME280;7757;52.626;4.746;2022-08-01T05:21:49;101637.56;;;23.29;60.48
15314;BME280;7757;52.626;4.746;2022-08-01T05:24:18;101649.00;;;23.43;60.28
15314;BME280;7757;52.626;4.746;2022-08-01T05:26:44;101650.81;;;23.20;61.02
15314;BME280;7757;52.626;4.746;2022-08-01T05:29:11;101653.84;;;23.24;61.17
15314;BME280;7757;52.626;4.746;2022-08-01T05:31:37;101649.56;;;23.28;60.40
15314;BME280;7757;52.626;4.746;2022-08-01T05:34:04;101642.06;;;23.02;60.64
15314;BME280;7757;52.626;4.746;2022-08-01T05:36:30;101651.66;;;23.04;60.90
15314;BME280;7757;52.626;4.746;2022-08-01T05:38:58;101654.72;;;23.63;59.46
15314;BME280;7757;52.626;4.746;2022-08-01T05:41:25;101653.63;;;23.25;60.12
15314;BME280;7757;52.626;4.746;2022-08-01T05:43:52;101651.56;;;23.16;59.99
15314;BME280;7757;52.626;4.746;2022-08-01T05:46:19;101663.72;;;23.25;59.86
15314;BME280;7757;52.626;4.746;2022-08-01T05:48:45;101670.28;;;23.41;59.26
15314;BME280;7757;52.626;4.746;2022-08-01T05:51:12;101674.72;;;23.13;60.41
15314;BME280;7757;52.626;4.746;2022-08-01T05:53:39;101677.44;;;23.30;59.58
15314;BME280;7757;52.626;4.746;2022-08-01T05:56:06;101675.78;;;23.12;59.34
15314;BME280;7757;52.626;4.746;2022-08-01T05:58:33;101669.41;;;23.07;59.26
15314;BME280;7757;52.626;4.746;2022-08-01T06:00:59;101684.72;;;23.24;58.94
15314;BME280;7757;52.626;4.746;2022-08-01T06:03:26;101681.66;;;23.21;59.17
15314;BME280;7757;52.626;4.746;2022-08-01T06:05:56;101686.88;;;23.94;57.50
15314;BME280;7757;52.626;4.746;2022-08-01T06:08:23;101678.38;;;23.74;58.04
15314;BME280;7757;52.626;4.746;2022-08-01T06:10:49;101679.84;;;23.81;57.67
15314;BME280;7757;52.626;4.746;2022-08-01T06:13:17;101678.78;;;23.82;57.97
15314;BME280;7757;52.626;4.746;2022-08-01T06:15:45;101688.94;;;23.49;58.48
15314;BME280;7757;52.626;4.746;2022-08-01T06:18:12;101690.13;;;23.53;58.20
15314;BME280;7757;52.626;4.746;2022-08-01T06:20:38;101682.66;;;23.48;58.41
15314;BME280;7757;52.626;4.746;2022-08-01T06:23:05;101685.22;;;23.55;58.37
15314;BME280;7757;52.626;4.746;2022-08-01T06:25:32;101685.34;;;23.65;58.81
15314;BME280;7757;52.626;4.746;2022-08-01T06:27:58;101685.16;;;23.71;58.03
15314;BME280;7757;52.626;4.746;2022-08-01T06:30:26;101683.41;;;23.82;57.90
15314;BME280;7757;52.626;4.746;2022-08-01T06:32:53;101680.75;;;24.30;56.52
15314;BME280;7757;52.626;4.746;2022-08-01T06:35:21;101689.13;;;24.46;55.79
15314;BME280;7757;52.626;4.746;2022-08-01T06:37:47;101693.41;;;24.63;55.47
15314;BME280;7757;52.626;4.746;2022-08-01T06:40:17;101686.97;;;24.48;55.34
15314;BME280;7757;52.626;4.746;2022-08-01T06:42:44;101684.81;;;24.76;54.70
15314;BME280;7757;52.626;4.746;2022-08-01T06:45:12;101699.53;;;24.70;54.19
15314;BME280;7757;52.626;4.746;2022-08-01T06:47:41;101700.00;;;24.89;54.63
15314;BME280;7757;52.626;4.746;2022-08-01T06:50:10;101708.47;;;25.19;53.73
15314;BME280;7757;52.626;4.746;2022-08-01T06:52:37;101698.78;;;25.38;52.65
15314;BME280;7757;52.626;4.746;2022-08-01T06:55:04;101710.13;;;25.20;52.91
15314;BME280;7757;52.626;4.746;2022-08-01T06:57:31;101715.38;;;24.95;52.98
15314;BME280;7757;52.626;4.746;2022-08-01T07:00:02;101716.41;;;24.89;53.82
15314;BME280;7757;52.626;4.746;2022-08-01T07:02:29;101712.53;;;25.12;52.57
15314;BME280;7757;52.626;4.746;2022-08-01T07:04:57;101713.63;;;25.16;52.87
15314;BME280;7757;52.626;4.746;2022-08-01T07:07:25;101706.91;;;24.96;51.99
15314;BME280;7757;52.626;4.746;2022-08-01T07:09:52;101719.00;;;25.01;51.97
15314;BME280;7757;52.626;4.746;2022-08-01T07:12:18;101718.56;;;25.14;52.63
15314;BME280;7757;52.626;4.746;2022-08-01T07:14:45;101724.13;;;25.24;52.40
15314;BME280;7757;52.626;4.746;2022-08-01T07:17:11;101718.88;;;25.54;52.00
15314;BME280;7757;52.626;4.746;2022-08-01T07:19:38;101722.22;;;25.56;51.22
15314;BME280;7757;52.626;4.746;2022-08-01T07:22:06;101728.91;;;25.75;50.82
15314;BME280;7757;52.626;4.746;2022-08-01T07:24:32;101727.50;;;25.68;50.98
15314;BME280;7757;52.626;4.746;2022-08-01T07:26:59;101722.59;;;25.38;52.04
15314;BME280;7757;52.626;4.746;2022-08-01T07:29:26;101734.53;;;25.54;51.85
15314;BME280;7757;52.626;4.746;2022-08-01T07:31:54;101738.81;;;25.81;50.60
15314;BME280;7757;52.626;4.746;2022-08-01T07:34:21;101740.25;;;25.94;50.62
15314;BME280;7757;52.626;4.746;2022-08-01T07:36:49;101737.22;;;25.95;50.82
15314;BME280;7757;52.626;4.746;2022-08-01T07:39:17;101744.75;;;25.68;50.93
15314;BME280;7757;52.626;4.746;2022-08-01T07:41:44;101756.38;;;25.17;51.91
15314;BME280;7757;52.626;4.746;2022-08-01T07:44:10;101749.19;;;25.42;51.19
15314;BME280;7757;52.626;4.746;2022-08-01T07:46:37;101760.63;;;25.66;50.73
15314;BME280;7757;52.626;4.746;2022-08-01T07:49:03;101761.41;;;25.57;50.90
15314;BME280;7757;52.626;4.746;2022-08-01T07:51:30;101755.72;;;25.68;50.37
15314;BME280;7757;52.626;4.746;2022-08-01T07:53:56;101761.34;;;25.88;50.66
15314;BME280;7757;52.626;4.746;2022-08-01T07:56:24;101771.56;;;26.03;50.02
15314;BME280;7757;52.626;4.746;2022-08-01T07:58:51;101766.50;;;26.27;49.65
15314;BME280;7757;52.626;4.746;2022-08-01T08:01:18;101772.97;;;25.69;49.85
15314;BME280;7757;52.626;4.746;2022-08-01T08:03:44;101762.91;;;25.79;50.18
15314;BME280;7757;52.626;4.746;2022-08-01T08:06:11;101771.78;;;25.91;49.21
15314;BME280;7757;52.626;4.746;2022-08-01T08:08:37;101768.66;;;26.25;48.85
15314;BME280;7757;52.626;4.746;2022-08-01T08:11:04;101764.31;;;26.34;49.53
15314;BME280;7757;52.626;4.746;2022-08-01T08:13:32;101761.25;;;26.20;49.18
15314;BME280;7757;52.626;4.746;2022-08-01T08:15:58;101774.31;;;26.08;49.48
15314;BME280;7757;52.626;4.746;2022-08-01T08:18:25;101778.63;;;25.89;49.44
15314;BME280;7757;52.626;4.746;2022-08-01T08:20:52;101778.84;;;26.29;48.72
15314;BME280;7757;52.626;4.746;2022-08-01T08:23:19;101768.50;;;25.94;49.64
15314;BME280;7757;52.626;4.746;2022-08-01T08:26:03;101778.34;;;25.90;48.88
15314;BME280;7757;52.626;4.746;2022-08-01T08:28:31;101777.75;;;25.83;49.86
15314;BME280;7757;52.626;4.746;2022-08-01T08:30:57;101778.41;;;26.00;48.99
15314;BME280;7757;52.626;4.746;2022-08-01T08:33:24;101786.09;;;26.03;48.99
15314;BME280;7757;52.626;4.746;2022-08-01T08:35:51;101792.66;;;26.02;48.78
15314;BME280;7757;52.626;4.746;2022-08-01T08:38:19;101791.69;;;25.77;50.34
15314;BME280;7757;52.626;4.746;2022-08-01T08:40:45;101793.47;;;25.98;49.77
15314;BME280;7757;52.626;4.746;2022-08-01T08:43:12;101790.88;;;26.23;48.60
15314;BME280;7757;52.626;4.746;2022-08-01T08:45:40;101786.84;;;26.36;48.97
15314;BME280;7757;52.626;4.746;2022-08-01T08:48:08;101796.34;;;26.18;49.63
15314;BME280;7757;52.626;4.746;2022-08-01T08:50:36;101791.28;;;26.00;49.70
15314;BME280;7757;52.626;4.746;2022-08-01T08:53:02;101796.63;;;25.80;49.09
15314;BME280;7757;52.626;4.746;2022-08-01T08:55:29;101783.59;;;25.97;49.59
15314;BME280;7757;52.626;4.746;2022-08-01T08:57:56;101779.09;;;25.81;49.46
15314;BME280;7757;52.626;4.746;2022-08-01T09:00:24;101787.63;;;25.84;49.99
15314;BME280;7757;52.626;4.746;2022-08-01T09:02:55;101789.00;;;25.87;48.92
15314;BME280;7757;52.626;4.746;2022-08-01T09:05:23;101791.03;;;25.65;50.21
15314;BME280;7757;52.626;4.746;2022-08-01T09:07:51;101790.03;;;25.76;48.91
15314;BME280;7757;52.626;4.746;2022-08-01T09:10:18;101796.59;;;25.75;49.09
15314;BME280;7757;52.626;4.746;2022-08-01T09:13:06;101798.78;;;25.73;50.04
15314;BME280;7757;52.626;4.746;2022-08-01T09:15:38;101798.69;;;25.99;49.06
15314;BME280;7757;52.626;4.746;2022-08-01T09:18:07;101800.56;;;25.57;49.37
15314;BME280;7757;52.626;4.746;2022-08-01T09:20:33;101802.44;;;25.51;48.29
15314;BME280;7757;52.626;4.746;2022-08-01T09:23:01;101804.72;;;25.33;50.04
15314;BME280;7757;52.626;4.746;2022-08-01T09:25:27;101797.56;;;25.27;48.16
15314;BME280;7757;52.626;4.746;2022-08-01T09:28:02;101804.78;;;25.38;49.35
15314;BME280;7757;52.626;4.746;2022-08-01T09:30:36;101818.72;;;25.10;51.70
15314;BME280;7757;52.626;4.746;2022-08-01T09:33:05;101813.72;;;25.55;50.29
15314;BME280;7757;52.626;4.746;2022-08-01T09:35:34;101822.91;;;25.44;49.13
15314;BME280;7757;52.626;4.746;2022-08-01T09:38:13;101814.34;;;24.65;49.43
15314;BME280;7757;52.626;4.746;2022-08-01T09:40:48;101822.19;;;25.00;50.24
15314;BME280;7757;52.626;4.746;2022-08-01T09:43:15;101814.53;;;25.02;50.29
15314;BME280;7757;52.626;4.746;2022-08-01T09:45:42;101818.59;;;24.94;49.45
15314;BME280;7757;52.626;4.746;2022-08-01T09:48:09;101814.59;;;25.07;51.68
15314;BME280;7757;52.626;4.746;2022-08-01T09:50:43;101815.47;;;25.13;51.30
15314;BME280;7757;52.626;4.746;2022-08-01T09:53:10;101822.06;;;24.90;50.00
15314;BME280;7757;52.626;4.746;2022-08-01T09:55:37;101830.09;;;24.96;48.92
15314;BME280;7757;52.626;4.746;2022-08-01T09:58:04;101829.97;;;24.86;50.88
15314;BME280;7757;52.626;4.746;2022-08-01T10:00:32;101834.41;;;24.92;50.70
15314;BME280;7757;52.626;4.746;2022-08-01T10:03:00;101839.00;;;24.87;50.71
15314;BME280;7757;52.626;4.746;2022-08-01T10:05:45;101826.53;;;24.96;50.58
15314;BME280;7757;52.626;4.746;2022-08-01T10:08:13;101830.06;;;24.91;52.12
15314;BME280;7757;52.626;4.746;2022-08-01T10:10:39;101830.59;;;24.72;51.11
15314;BME280;7757;52.626;4.746;2022-08-01T10:13:07;101829.09;;;24.81;49.92
15314;BME280;7757;52.626;4.746;2022-08-01T10:15:35;101827.22;;;24.86;50.21
15314;BME280;7757;52.626;4.746;2022-08-01T10:18:04;101828.94;;;24.92;51.51
15314;BME280;7757;52.626;4.746;2022-08-01T10:20:33;101835.44;;;24.65;52.74
15314;BME280;7757;52.626;4.746;2022-08-01T10:23:03;101833.34;;;24.50;53.28
15314;BME280;7757;52.626;4.746;2022-08-01T10:25:34;101829.81;;;24.33;54.01
15314;BME280;7757;52.626;4.746;2022-08-01T10:28:17;101834.19;;;24.94;51.13
15314;BME280;7757;52.626;4.746;2022-08-01T10:30:45;101835.19;;;24.88;50.29
15314;BME280;7757;52.626;4.746;2022-08-01T10:33:12;101837.09;;;24.87;51.23
15314;BME280;7757;52.626;4.746;2022-08-01T10:35:39;101824.38;;;24.55;49.99
15314;BME280;7757;52.626;4.746;2022-08-01T10:38:07;101832.94;;;24.63;51.78
15314;BME280;7757;52.626;4.746;2022-08-01T10:40:35;101835.75;;;24.68;50.44
15314;BME280;7757;52.626;4.746;2022-08-01T10:43:03;101832.06;;;24.58;51.30
15314;BME280;7757;52.626;4.746;2022-08-01T10:45:30;101838.78;;;24.88;51.12
15314;BME280;7757;52.626;4.746;2022-08-01T10:48:04;101829.56;;;24.78;51.10
15314;BME280;7757;52.626;4.746;2022-08-01T10:50:34;101840.72;;;24.93;50.77
15314;BME280;7757;52.626;4.746;2022-08-01T10:53:07;101840.78;;;24.76;51.35
15314;BME280;7757;52.626;4.746;2022-08-01T10:55:46;101851.22;;;25.01;50.96
15314;BME280;7757;52.626;4.746;2022-08-01T10:58:13;101835.97;;;24.83;50.21
15314;BME280;7757;52.626;4.746;2022-08-01T11:00:40;101838.19;;;24.65;50.37
15314;BME280;7757;52.626;4.746;2022-08-01T11:03:06;101840.28;;;24.79;49.89
15314;BME280;7757;52.626;4.746;2022-08-01T11:05:34;101837.66;;;24.89;50.70
15314;BME280;7757;52.626;4.746;2022-08-01T11:08:03;101833.66;;;24.75;50.21
15314;BME280;7757;52.626;4.746;2022-08-01T11:10:38;101848.28;;;24.86;51.11
15314;BME280;7757;52.626;4.746;2022-08-01T11:13:04;101847.41;;;25.02;49.96
15314;BME280;7757;52.626;4.746;2022-08-01T11:15:33;101844.34;;;24.77;49.44
15314;BME280;7757;52.626;4.746;2022-08-01T11:18:02;101836.66;;;24.74;50.73
15314;BME280;7757;52.626;4.746;2022-08-01T11:20:30;101842.75;;;24.59;51.68
15314;BME280;7757;52.626;4.746;2022-08-01T11:23:25;101843.66;;;24.86;51.01
15314;BME280;7757;52.626;4.746;2022-08-01T11:26:12;101839.91;;;24.92;51.34
15314;BME280;7757;52.626;4.746;2022-08-01T11:28:39;101838.19;;;24.86;48.79
15314;BME280;7757;52.626;4.746;2022-08-01T11:31:29;101846.16;;;24.88;49.84
15314;BME280;7757;52.626;4.746;2022-08-01T11:33:56;101844.03;;;24.95;50.20
15314;BME280;7757;52.626;4.746;2022-08-01T11:36:23;101853.06;;;24.95;49.92
15314;BME280;7757;52.626;4.746;2022-08-01T11:39:10;101844.94;;;25.01;50.13
15314;BME280;7757;52.626;4.746;2022-08-01T11:41:38;101842.44;;;24.99;49.40
15314;BME280;7757;52.626;4.746;2022-08-01T11:44:07;101841.00;;;24.31;48.79
15314;BME280;7757;52.626;4.746;2022-08-01T11:47:04;101838.16;;;24.43;48.72
15314;BME280;7757;52.626;4.746;2022-08-01T11:49:46;101843.44;;;24.71;49.13
15314;BME280;7757;52.626;4.746;2022-08-01T11:52:18;101840.41;;;24.89;50.22
15314;BME280;7757;52.626;4.746;2022-08-01T11:54:47;101844.91;;;24.79;49.20
15314;BME280;7757;52.626;4.746;2022-08-01T11:57:18;101847.59;;;24.74;49.95
15314;BME280;7757;52.626;4.746;2022-08-01T11:59:46;101842.88;;;24.69;51.03
15314;BME280;7757;52.626;4.746;2022-08-01T12:02:16;101843.22;;;24.94;49.84
15314;BME280;7757;52.626;4.746;2022-08-01T12:04:48;101852.34;;;25.05;50.06
15314;BME280;7757;52.626;4.746;2022-08-01T12:07:16;101845.44;;;24.98;49.95
15314;BME280;7757;52.626;4.746;2022-08-01T12:09:43;101850.47;;;24.84;50.93
15314;BME280;7757;52.626;4.746;2022-08-01T12:12:16;101845.63;;;24.91;49.44
15314;BME280;7757;52.626;4.746;2022-08-01T12:14:52;101852.28;;;24.57;48.37
15314;BME280;7757;52.626;4.746;2022-08-01T12:17:26;101849.63;;;24.62;50.21
15314;BME280;7757;52.626;4.746;2022-08-01T12:19:53;101854.16;;;24.94;49.54
15314;BME280;7757;52.626;4.746;2022-08-01T12:22:22;101848.44;;;24.96;49.89
15314;BME280;7757;52.626;4.746;2022-08-01T12:24:49;101853.16;;;25.01;50.29
15314;BME280;7757;52.626;4.746;2022-08-01T12:27:25;101855.19;;;24.88;50.71
15314;BME280;7757;52.626;4.746;2022-08-01T12:29:52;101852.72;;;25.14;49.15
15314;BME280;7757;52.626;4.746;2022-08-01T12:32:26;101856.81;;;25.11;49.74
15314;BME280;7757;52.626;4.746;2022-08-01T12:34:54;101859.44;;;24.79;51.17
15314;BME280;7757;52.626;4.746;2022-08-01T12:37:22;101852.69;;;25.09;50.55
15314;BME280;7757;52.626;4.746;2022-08-01T12:39:48;101852.56;;;24.77;51.41
15314;BME280;7757;52.626;4.746;2022-08-01T12:42:15;101856.69;;;24.79;51.32
15314;BME280;7757;52.626;4.746;2022-08-01T12:44:45;101853.72;;;25.03;50.62
15314;BME280;7757;52.626;4.746;2022-08-01T12:47:14;101854.97;;;24.73;51.29
15314;BME280;7757;52.626;4.746;2022-08-01T12:49:43;101861.19;;;24.85;50.97
15314;BME280;7757;52.626;4.746;2022-08-01T12:52:11;101849.91;;;25.04;49.90
15314;BME280;7757;52.626;4.746;2022-08-01T12:55:00;101859.34;;;24.74;51.05
15314;BME280;7757;52.626;4.746;2022-08-01T12:57:27;101861.72;;;25.09;49.27
15314;BME280;7757;52.626;4.746;2022-08-01T13:00:05;101857.16;;;25.20;49.53
15314;BME280;7757;52.626;4.746;2022-08-01T13:02:32;101851.34;;;25.11;50.15
15314;BME280;7757;52.626;4.746;2022-08-01T13:04:59;101846.25;;;25.25;48.20
15314;BME280;7757;52.626;4.746;2022-08-01T13:07:34;101839.88;;;25.14;49.70
15314;BME280;7757;52.626;4.746;2022-08-01T13:10:01;101841.88;;;24.97;49.97